Time;durP1;ratioP1;P1;durP2;ratioP2;P2;SDS_P1;SDS_P2;PMS_P1;PMS_P2;Temp;Humidity;BMP_temperature;BMP_pressure;BME280_temperature;BME280_humidity;BME280_pressure;Samples;Min_cycle;Max_cycle;Signal;HPM_P1;HPM_P2
2023/01/07 00:02:21;;;;;;;6.47;2.47;;;15.40;80.50;;;;;;7366180;19;20396;-78
2023/01/07 00:04:49;;;;;;;4.72;2.03;;;15.40;80.70;;;;;;7389460;19;20023;-79
2023/01/07 00:07:18;;;;;;;6.32;2.00;;;15.40;80.70;;;;;;7365713;19;20014;-78
2023/01/07 00:09:47;;;;;;;2.92;1.90;;;15.40;80.60;;;;;;7363519;19;20112;-79
2023/01/07 00:12:18;;;;;;;4.22;2.40;;;15.40;80.70;;;;;;7364504;19;20015;-79
2023/01/07 00:14:47;;;;;;;4.13;2.17;;;15.40;80.60;;;;;;7362528;19;20489;-78
2023/01/07 00:17:16;;;;;;;3.83;2.05;;;15.40;80.70;;;;;;7370470;19;20437;-79
2023/01/07 00:19:44;;;;;;;4.50;2.30;;;15.40;80.50;;;;;;7392712;19;20032;-79
2023/01/07 00:22:13;;;;;;;5.00;2.00;;;15.40;80.50;;;;;;7371592;19;20097;-78
2023/01/07 00:24:42;;;;;;;4.75;2.35;;;15.40;80.50;;;;;;7374321;19;20364;-78
2023/01/07 00:27:10;;;;;;;7.85;2.45;;;15.30;80.40;;;;;;7371632;19;20840;-78
2023/01/07 00:29:42;;;;;;;8.68;2.13;;;15.40;80.50;;;;;;7362729;19;20887;-77
2023/01/07 00:32:10;;;;;;;4.80;1.83;;;15.40;80.40;;;;;;7387430;19;20621;-76
2023/01/07 00:34:39;;;;;;;5.00;2.00;;;15.40;80.20;;;;;;7365616;19;20014;-77
2023/01/07 00:40:01;;;;;;;5.65;2.40;;;15.30;80.20;;;;;;7364828;19;20038;-76
2023/01/07 00:45:14;;;;;;;3.10;2.05;;;15.30;80.40;;;;;;7369035;19;20050;-76
2023/01/07 00:47:42;;;;;;;4.80;2.05;;;15.30;80.10;;;;;;7368917;19;20018;-76
2023/01/07 00:50:11;;;;;;;5.57;1.95;;;15.40;80.00;;;;;;7388909;19;20414;-76
2023/01/07 00:52:40;;;;;;;4.80;2.00;;;15.40;79.70;;;;;;7367791;19;20447;-76
2023/01/07 00:55:10;;;;;;;6.35;2.20;;;15.40;79.70;;;;;;7366031;19;20398;-76
2023/01/07 00:57:39;;;;;;;4.85;1.95;;;15.30;79.90;;;;;;7368504;19;20018;-76
2023/01/07 01:00:09;;;;;;;3.00;1.73;;;15.30;79.70;;;;;;7366720;19;20031;-77
2023/01/07 01:02:40;;;;;;;5.72;1.90;;;15.30;79.80;;;;;;7366078;19;20141;-76
2023/01/07 01:05:10;;;;;;;8.32;2.05;;;15.30;79.80;;;;;;7389212;19;20015;-77
2023/01/07 01:07:39;;;;;;;3.40;1.95;;;15.40;80.00;;;;;;7366064;19;20015;-76
2023/01/07 01:10:10;;;;;;;2.97;1.90;;;15.40;79.70;;;;;;7366146;19;20122;-76
2023/01/07 01:12:39;;;;;;;4.15;2.10;;;15.40;79.40;;;;;;7367456;19;20110;-76
2023/01/07 01:15:11;;;;;;;3.17;1.60;;;15.30;79.40;;;;;;7367693;19;20017;-76
2023/01/07 01:17:43;;;;;;;13.43;2.83;;;15.30;79.20;;;;;;7368430;19;20082;-76
2023/01/07 01:20:14;;;;;;;3.38;1.77;;;15.30;79.40;;;;;;7390491;19;20025;-76
2023/01/07 01:22:43;;;;;;;3.92;2.00;;;15.30;79.50;;;;;;7367791;19;20593;-77
2023/01/07 01:25:13;;;;;;;6.53;1.95;;;15.30;79.60;;;;;;7366645;19;20011;-77
2023/01/07 01:27:42;;;;;;;3.80;1.65;;;15.30;79.80;;;;;;7366731;19;20015;-77
2023/01/07 01:30:13;;;;;;;4.20;1.83;;;15.30;79.40;;;;;;7363692;19;20078;-77
2023/01/07 01:32:44;;;;;;;4.35;2.25;;;15.40;79.50;;;;;;7366599;19;20070;-77
2023/01/07 01:35:12;;;;;;;1.85;1.55;;;15.40;79.40;;;;;;7388899;19;20019;-77
2023/01/07 01:37:41;;;;;;;6.18;2.28;;;15.40;79.90;;;;;;7366388;19;20082;-77
2023/01/07 01:40:12;;;;;;;3.60;1.90;;;15.30;78.90;;;;;;7367674;19;20085;-76
2023/01/07 01:42:41;;;;;;;1.90;1.38;;;15.30;79.20;;;;;;7369443;19;20102;-77
2023/01/07 01:45:13;;;;;;;5.03;1.70;;;15.40;79.30;;;;;;7367623;19;20025;-76
2023/01/07 01:47:48;;;;;;;5.07;1.85;;;15.30;79.20;;;;;;7368925;19;20022;-76
2023/01/07 01:50:23;;;;;;;4.97;1.75;;;15.30;79.20;;;;;;7370224;19;20082;-76
2023/01/07 01:52:56;;;;;;;4.82;2.10;;;15.30;79.20;;;;;;7393324;19;20066;-76
2023/01/07 01:55:29;;;;;;;7.75;2.20;;;15.30;79.20;;;;;;7374810;19;20172;-76
2023/01/07 01:58:02;;;;;;;2.05;1.77;;;15.30;79.40;;;;;;7398474;19;20017;-77
2023/01/07 02:00:31;;;;;;;5.43;2.20;;;15.30;79.50;;;;;;7383224;19;20014;-77
2023/01/07 02:03:04;;;;;;;3.78;2.00;;;15.30;79.40;;;;;;7377804;19;20019;-77
2023/01/07 02:05:36;;;;;;;5.10;2.15;;;15.30;79.50;;;;;;7370245;19;20002;-77
2023/01/07 02:08:05;;;;;;;5.20;2.05;;;15.20;79.60;;;;;;7392277;19;20179;-77
2023/01/07 02:10:34;;;;;;;3.30;2.03;;;15.20;79.60;;;;;;7368778;19;20036;-77
2023/01/07 02:13:32;;;;;;;4.95;1.80;;;15.10;79.60;;;;;;7367944;19;20021;-77
2023/01/07 02:16:06;;;;;;;3.75;1.90;;;15.10;79.90;;;;;;7365366;19;20101;-77
2023/01/07 02:18:50;;;;;;;3.33;1.88;;;15.00;79.50;;;;;;7368487;19;20089;-77
2023/01/07 02:21:38;;;;;;;4.95;2.03;;;15.00;79.70;;;;;;7368433;19;20122;-77
2023/01/07 02:24:40;;;;;;;3.05;1.75;;;15.00;79.50;;;;;;7368697;19;20226;-77
2023/01/07 02:27:23;;;;;;;2.33;1.60;;;15.00;79.40;;;;;;7366568;19;20021;-77
2023/01/07 02:30:33;;;;;;;2.85;1.80;;;15.10;79.70;;;;;;7364961;19;20106;-77
2023/01/07 02:33:16;;;;;;;3.85;2.10;;;15.10;79.50;;;;;;7363749;19;20037;-77
2023/01/07 02:35:57;;;;;;;2.65;2.05;;;15.10;79.20;;;;;;7365933;19;20014;-77
2023/01/07 02:38:35;;;;;;;3.78;1.70;;;15.10;79.00;;;;;;7365912;19;20636;-78
2023/01/07 02:41:10;;;;;;;3.00;1.80;;;15.20;78.90;;;;;;7383159;19;20015;-77
2023/01/07 02:43:48;;;;;;;2.58;1.70;;;15.10;78.60;;;;;;7365294;19;20010;-77
2023/01/07 02:46:22;;;;;;;2.63;1.70;;;15.10;78.90;;;;;;7363487;19;20040;-77
2023/01/07 02:48:53;;;;;;;2.88;1.80;;;15.10;78.50;;;;;;7363489;19;20013;-77
2023/01/07 02:51:22;;;;;;;4.93;1.50;;;15.20;78.30;;;;;;7364396;19;20014;-77
2023/01/07 02:53:51;;;;;;;1.67;1.30;;;15.10;79.10;;;;;;7364747;19;20090;-77
2023/01/07 02:56:29;;;;;;;2.97;1.42;;;15.10;77.90;;;;;;7363638;19;20090;-77
2023/01/07 02:59:18;;;;;;;2.40;1.30;;;15.10;77.90;;;;;;7382894;19;20019;-77
2023/01/07 03:02:12;;;;;;;3.45;1.50;;;15.10;77.80;;;;;;7362931;19;20436;-77
2023/01/07 03:05:08;;;;;;;1.77;1.45;;;15.10;77.40;;;;;;7364180;19;20011;-77
2023/01/07 03:07:48;;;;;;;4.40;1.55;;;15.10;77.50;;;;;;7365349;19;20085;-77
2023/01/07 03:10:27;;;;;;;3.70;1.40;;;15.10;77.50;;;;;;7364930;19;20078;-77
2023/01/07 03:13:01;;;;;;;2.75;1.35;;;15.20;77.20;;;;;;7366181;19;20021;-77
2023/01/07 03:15:33;;;;;;;1.65;1.20;;;15.20;77.10;;;;;;7368361;19;20010;-77
2023/01/07 03:18:06;;;;;;;5.38;1.38;;;15.20;76.60;;;;;;7366119;19;20089;-77
2023/01/07 03:20:40;;;;;;;3.10;1.60;;;15.20;76.60;;;;;;7363312;19;20773;-77
2023/01/07 03:23:12;;;;;;;2.55;1.42;;;15.10;76.20;;;;;;7389912;19;20090;-77
2023/01/07 03:25:45;;;;;;;3.60;1.23;;;15.10;76.40;;;;;;7366460;19;20014;-78
2023/01/07 03:28:18;;;;;;;3.78;1.80;;;15.10;76.60;;;;;;7365013;19;20437;-77
2023/01/07 03:30:48;;;;;;;4.15;1.50;;;15.10;76.50;;;;;;7366223;19;20142;-78
2023/01/07 03:33:22;;;;;;;1.83;1.30;;;15.10;76.40;;;;;;7367196;19;20337;-78
2023/01/07 03:35:58;;;;;;;3.33;1.38;;;15.20;76.40;;;;;;7367260;19;20649;-77
2023/01/07 03:38:28;;;;;;;3.42;1.40;;;15.10;76.10;;;;;;7364907;19;20353;-77
2023/01/07 03:40:57;;;;;;;3.45;1.90;;;15.10;76.30;;;;;;7387771;19;20014;-78
2023/01/07 03:43:23;;;;;;;3.95;1.90;;;15.10;76.30;;;;;;7365141;19;20465;-78
2023/01/07 03:45:55;;;;;;;6.60;1.67;;;15.10;76.30;;;;;;7365477;19;20050;-78
2023/01/07 03:48:24;;;;;;;3.75;1.45;;;15.10;76.40;;;;;;7366789;19;20090;-78
2023/01/07 03:50:55;;;;;;;3.45;1.40;;;15.20;76.40;;;;;;7363153;19;20026;-78
2023/01/07 03:53:24;;;;;;;3.88;1.30;;;15.10;76.00;;;;;;7366830;19;20022;-78
2023/01/07 03:55:52;;;;;;;5.05;1.35;;;15.20;76.10;;;;;;7393624;19;20082;-77
2023/01/07 03:58:21;;;;;;;2.00;1.50;;;15.10;75.80;;;;;;7371194;19;20019;-77
2023/01/07 04:00:50;;;;;;;4.05;1.63;;;15.10;76.10;;;;;;7372517;19;20825;-77
2023/01/07 04:03:18;;;;;;;2.97;1.20;;;15.10;76.10;;;;;;7373980;19;20020;-78
2023/01/07 04:05:47;;;;;;;2.67;1.35;;;15.20;76.10;;;;;;7373360;19;20018;-78
2023/01/07 04:08:18;;;;;;;3.25;1.38;;;15.20;75.80;;;;;;7379556;19;20073;-78
2023/01/07 04:10:47;;;;;;;3.90;1.50;;;15.10;75.90;;;;;;7393391;19;20018;-77
2023/01/07 04:13:16;;;;;;;2.38;1.35;;;15.10;75.70;;;;;;7369835;19;20564;-78
2023/01/07 04:15:44;;;;;;;3.25;1.60;;;15.10;76.00;;;;;;7371516;19;20017;-78
2023/01/07 04:18:13;;;;;;;2.47;1.48;;;15.10;75.70;;;;;;7372645;19;20014;-77
2023/01/07 04:20:42;;;;;;;2.35;1.45;;;15.10;75.90;;;;;;7369559;19;20417;-77
2023/01/07 04:23:10;;;;;;;3.22;1.40;;;15.00;76.00;;;;;;7394126;19;20014;-77
2023/01/07 04:25:42;;;;;;;4.15;1.30;;;15.00;76.10;;;;;;7371206;19;20081;-77
2023/01/07 04:28:10;;;;;;;3.00;1.40;;;15.00;76.50;;;;;;7370870;19;20017;-77
2023/01/07 04:30:39;;;;;;;5.45;1.40;;;15.00;76.60;;;;;;7368811;19;20014;-77
2023/01/07 04:33:08;;;;;;;2.75;1.83;;;15.00;76.80;;;;;;7371568;19;20110;-77
2023/01/07 04:35:37;;;;;;;9.07;1.50;;;15.00;76.90;;;;;;7369923;19;20369;-77
2023/01/07 04:38:06;;;;;;;3.70;1.77;;;14.90;76.80;;;;;;7391853;19;20395;-77
2023/01/07 04:40:34;;;;;;;2.63;1.70;;;14.90;77.00;;;;;;7369803;19;20010;-77
2023/01/07 04:43:06;;;;;;;2.22;1.52;;;14.90;77.10;;;;;;7371460;19;20014;-77
2023/01/07 04:45:34;;;;;;;5.18;1.50;;;14.70;77.10;;;;;;7371626;19;20024;-77
2023/01/07 04:48:03;;;;;;;3.70;1.63;;;14.70;77.40;;;;;;7372727;19;20103;-77
2023/01/07 04:50:32;;;;;;;2.72;1.50;;;14.70;77.60;;;;;;7368523;19;20821;-77
2023/01/07 04:53:01;;;;;;;4.00;1.60;;;14.70;77.70;;;;;;7389501;19;20078;-77
2023/01/07 04:55:29;;;;;;;4.53;1.50;;;14.60;77.80;;;;;;7371431;19;20090;-77
2023/01/07 04:57:58;;;;;;;3.85;1.70;;;14.60;78.00;;;;;;7370243;19;20453;-77
2023/01/07 05:00:29;;;;;;;3.80;1.90;;;14.50;78.30;;;;;;7371377;19;20014;-77
2023/01/07 05:02:58;;;;;;;3.13;2.25;;;14.50;78.60;;;;;;7367934;19;20035;-77
2023/01/07 05:05:27;;;;;;;5.60;1.60;;;14.40;78.80;;;;;;7363849;19;20014;-77
2023/01/07 05:07:56;;;;;;;3.20;1.60;;;14.40;79.10;;;;;;7391970;19;20082;-77
2023/01/07 05:10:24;;;;;;;4.88;1.95;;;14.40;79.20;;;;;;7367986;19;20437;-77
2023/01/07 05:12:53;;;;;;;5.70;2.03;;;14.40;79.40;;;;;;7370051;19;20039;-77
2023/01/07 05:15:22;;;;;;;3.97;2.38;;;14.40;79.60;;;;;;7369672;19;20070;-77
2023/01/07 05:17:53;;;;;;;3.28;1.90;;;14.40;79.80;;;;;;7369326;19;20018;-77
2023/01/07 05:20:22;;;;;;;5.95;2.10;;;14.30;79.70;;;;;;7370552;19;20018;-77
2023/01/07 05:22:51;;;;;;;5.70;2.00;;;14.30;79.90;;;;;;7391784;19;20048;-77
2023/01/07 05:25:20;;;;;;;5.85;2.30;;;14.30;79.90;;;;;;7368412;19;20011;-77
2023/01/07 05:27:48;;;;;;;4.55;2.20;;;14.30;80.20;;;;;;7368931;19;20101;-77
2023/01/07 05:30:17;;;;;;;5.43;2.40;;;14.30;80.50;;;;;;7366881;19;20010;-77
2023/01/07 05:32:46;;;;;;;6.25;2.67;;;14.30;80.40;;;;;;7371422;19;20031;-77
2023/01/07 05:35:18;;;;;;;3.55;2.88;;;14.20;80.30;;;;;;7389935;19;20117;-77
2023/01/07 05:37:46;;;;;;;;;;;14.10;80.60;;;;;;7416396;19;20013;-77
2023/01/07 05:40:15;;;;;;;6.53;2.67;;;14.20;80.80;;;;;;7391775;19;19938;-77
2023/01/07 05:42:44;;;;;;;5.95;2.67;;;14.10;80.80;;;;;;7379291;19;20082;-77
2023/01/07 05:45:13;;;;;;;4.13;2.72;;;14.10;81.00;;;;;;7372238;19;20086;-77
2023/01/07 05:47:42;;;;;;;4.65;2.70;;;14.10;81.00;;;;;;7371893;19;20382;-77
2023/01/07 05:50:11;;;;;;;4.97;2.72;;;14.10;81.20;;;;;;7391053;19;20019;-76
2023/01/07 05:52:42;;;;;;;3.97;2.78;;;14.10;81.00;;;;;;7369488;19;20014;-77
2023/01/07 05:55:11;;;;;;;8.23;2.85;;;13.90;81.10;;;;;;7370075;19;20017;-77
2023/01/07 05:57:40;;;;;;;7.82;3.42;;;14.00;81.50;;;;;;7369811;19;20433;-77
2023/01/07 06:00:11;;;;;;;6.05;3.17;;;13.90;81.60;;;;;;7368935;19;20089;-76
2023/01/07 06:02:40;;;;;;;4.70;3.03;;;13.90;82.00;;;;;;7368814;19;20051;-77
2023/01/07 06:05:10;;;;;;;5.38;3.17;;;13.90;82.00;;;;;;7391143;19;20028;-78
2023/01/07 06:07:41;;;;;;;4.22;2.50;;;13.90;82.00;;;;;;7368761;19;20014;-76
2023/01/07 06:10:10;;;;;;;10.05;3.10;;;13.90;81.90;;;;;;7367848;19;20025;-77
2023/01/07 06:12:39;;;;;;;7.35;3.00;;;13.90;81.70;;;;;;7368881;19;20481;-77
2023/01/07 06:15:09;;;;;;;4.68;2.83;;;13.80;82.50;;;;;;7368718;19;20098;-77
2023/01/07 06:17:38;;;;;;;4.88;3.20;;;13.80;81.60;;;;;;7367591;19;20018;-77
2023/01/07 06:20:08;;;;;;;7.70;3.17;;;13.80;81.60;;;;;;7390773;19;20090;-77
2023/01/07 06:22:37;;;;;;;7.03;3.03;;;13.80;81.60;;;;;;7366037;19;20024;-77
2023/01/07 06:25:09;;;;;;;6.97;3.30;;;13.80;81.60;;;;;;7367442;19;20018;-77
2023/01/07 06:27:39;;;;;;;5.20;2.92;;;13.70;81.40;;;;;;7367163;19;20010;-77
2023/01/07 06:30:09;;;;;;;4.88;3.20;;;13.80;81.60;;;;;;7365562;19;20010;-76
2023/01/07 06:32:43;;;;;;;7.25;3.10;;;13.80;81.60;;;;;;7367764;19;20017;-76
2023/01/07 06:35:13;;;;;;;5.32;2.75;;;13.70;81.60;;;;;;7388837;19;20046;-77
2023/01/07 06:37:42;;;;;;;4.65;3.00;;;13.80;81.70;;;;;;7368469;19;20018;-77
2023/01/07 06:40:14;;;;;;;6.20;3.40;;;13.80;81.70;;;;;;7367409;19;20102;-77
2023/01/07 06:42:42;;;;;;;;;;;13.80;81.60;;;;;;7368610;19;20108;-77
2023/01/07 06:45:12;;;;;;;9.68;3.35;;;13.90;81.20;;;;;;7365842;19;20580;-77
2023/01/07 06:47:41;;;;;;;6.40;3.03;;;13.80;81.00;;;;;;7368565;19;20135;-77
2023/01/07 06:50:11;;;;;;;6.90;3.05;;;13.90;81.20;;;;;;7388580;19;20021;-77
2023/01/07 06:52:39;;;;;;;3.53;2.78;;;13.90;81.20;;;;;;7368499;19;20101;-77
2023/01/07 06:55:09;;;;;;;6.63;3.03;;;13.90;81.00;;;;;;7365956;19;20512;-77
2023/01/07 06:57:40;;;;;;;8.32;2.85;;;14.00;81.20;;;;;;7365745;19;20814;-77
2023/01/07 07:00:10;;;;;;;5.07;3.08;;;14.00;81.00;;;;;;7367150;19;20018;-77
2023/01/07 07:02:39;;;;;;;7.30;2.90;;;14.00;80.70;;;;;;7367845;19;20853;-77
2023/01/07 07:05:08;;;;;;;6.15;2.83;;;14.10;80.70;;;;;;7387725;19;20348;-77
2023/01/07 07:07:37;;;;;;;6.75;2.92;;;14.00;80.40;;;;;;7366210;19;20086;-77
2023/01/07 07:10:07;;;;;;;6.60;2.70;;;14.10;80.30;;;;;;7367796;19;20094;-77
2023/01/07 07:12:36;;;;;;;11.70;2.80;;;14.10;80.30;;;;;;7366172;19;20014;-77
2023/01/07 07:15:12;;;;;;;11.70;2.85;;;14.10;79.90;;;;;;7367282;19;20021;-77
2023/01/07 07:17:41;;;;;;;8.15;2.80;;;14.00;79.50;;;;;;7367868;19;20110;-78
2023/01/07 07:20:11;;;;;;;4.53;2.60;;;13.90;79.40;;;;;;7387596;19;20509;-77
2023/01/07 07:22:40;;;;;;;7.57;3.08;;;13.90;79.70;;;;;;7366672;19;20039;-78
2023/01/07 07:25:09;;;;;;;6.88;2.35;;;13.80;79.70;;;;;;7366677;19;20091;-77
2023/01/07 07:27:38;;;;;;;4.18;2.72;;;13.80;79.80;;;;;;7370347;19;20017;-77
2023/01/07 07:30:11;;;;;;;10.65;3.03;;;13.80;80.00;;;;;;7373934;19;20476;-77
2023/01/07 07:32:40;;;;;;;7.30;2.85;;;13.70;80.00;;;;;;7372660;19;20015;-77
2023/01/07 07:35:10;;;;;;;6.35;3.33;;;13.70;80.00;;;;;;7395384;19;20026;-77
2023/01/07 07:37:39;;;;;;;7.70;2.58;;;13.60;80.00;;;;;;7373921;19;20078;-77
2023/01/07 07:40:10;;;;;;;6.93;3.05;;;13.60;79.90;;;;;;7372871;19;20036;-76
2023/01/07 07:42:40;;;;;;;5.50;2.92;;;13.60;80.00;;;;;;7373523;19;20020;-76
2023/01/07 07:45:14;;;;;;;5.00;2.88;;;13.50;80.00;;;;;;7373989;19;20082;-76
2023/01/07 07:47:43;;;;;;;5.30;3.13;;;13.50;80.10;;;;;;7373271;19;20529;-76
2023/01/07 07:50:12;;;;;;;4.50;2.83;;;13.50;80.20;;;;;;7394265;19;20496;-76
2023/01/07 07:52:41;;;;;;;7.40;3.15;;;13.40;81.00;;;;;;7373091;19;20099;-77
2023/01/07 07:55:10;;;;;;;4.25;2.75;;;13.40;80.20;;;;;;7372516;19;20044;-76
2023/01/07 07:57:39;;;;;;;6.15;2.95;;;13.40;80.40;;;;;;7373562;19;20106;-76
2023/01/07 08:00:12;;;;;;;4.75;2.95;;;13.50;80.40;;;;;;7373316;19;20035;-77
2023/01/07 08:02:41;;;;;;;7.07;3.30;;;13.40;80.20;;;;;;7371861;19;20504;-77
2023/01/07 08:05:11;;;;;;;5.20;3.10;;;13.40;80.10;;;;;;7395536;19;20102;-77
2023/01/07 08:07:40;;;;;;;6.13;3.30;;;13.40;80.30;;;;;;7372027;19;20580;-77
2023/01/07 08:10:10;;;;;;;7.35;3.25;;;13.40;80.20;;;;;;7373158;19;20014;-77
2023/01/07 08:12:39;;;;;;;6.35;3.20;;;13.40;80.30;;;;;;7371828;19;20103;-77
2023/01/07 08:15:12;;;;;;;5.25;3.35;;;13.40;80.10;;;;;;7369316;19;20018;-76
2023/01/07 08:17:41;;;;;;;5.80;3.00;;;13.50;80.20;;;;;;7375642;19;20796;-80
2023/01/07 08:20:11;;;;;;;5.93;3.30;;;13.50;80.10;;;;;;7398760;19;20094;-78
2023/01/07 08:22:40;;;;;;;9.50;2.77;;;13.50;80.00;;;;;;7374411;19;20021;-80
2023/01/07 08:25:10;;;;;;;5.70;3.13;;;13.50;80.20;;;;;;7372692;19;20014;-77
2023/01/07 08:27:38;;;;;;;37.80;14.98;;;13.40;80.30;;;;;;7372881;19;20007;-78
2023/01/07 08:30:08;;;;;;;103.95;46.20;;;13.50;80.70;;;;;;7370960;19;20094;-79
2023/01/07 08:32:39;;;;;;;43.30;21.08;;;13.50;80.50;;;;;;7366498;19;20026;-82
2023/01/07 08:35:10;;;;;;;24.15;12.43;;;13.50;80.70;;;;;;7394904;19;20078;-81
2023/01/07 08:37:39;;;;;;;11.55;5.78;;;13.60;80.40;;;;;;7372606;19;20039;-81
2023/01/07 08:40:09;;;;;;;14.63;6.90;;;13.60;80.20;;;;;;7375517;19;20034;-82
2023/01/07 08:42:38;;;;;;;6.85;3.92;;;13.60;80.20;;;;;;7378052;19;20089;-80
2023/01/07 08:45:09;;;;;;;6.65;4.25;;;13.50;80.20;;;;;;7378788;19;20038;-80
2023/01/07 08:47:41;;;;;;;;;;;13.50;80.20;;;;;;7380109;19;20031;-81
2023/01/07 08:50:10;;;;;;;8.85;3.03;;;13.70;80.40;;;;;;7400536;19;19946;-81
2023/01/07 08:52:39;;;;;;;6.18;3.50;;;13.70;80.20;;;;;;7376353;19;20423;-81
2023/01/07 08:55:09;;;;;;;13.05;3.60;;;13.60;80.00;;;;;;7378516;19;20810;-82
2023/01/07 08:57:38;;;;;;;4.72;3.42;;;13.70;80.00;;;;;;7376571;19;20357;-82
2023/01/07 09:00:08;;;;;;;7.35;3.35;;;13.70;80.10;;;;;;7370497;19;20011;-81
2023/01/07 09:02:37;;;;;;;4.20;3.13;;;13.80;80.10;;;;;;7371248;19;20068;-81
2023/01/07 09:05:10;;;;;;;5.85;3.30;;;13.90;80.10;;;;;;7395006;19;20014;-81
2023/01/07 09:07:39;;;;;;;4.93;2.95;;;13.90;80.00;;;;;;7371427;19;20011;-82
2023/01/07 09:10:08;;;;;;;3.45;2.75;;;13.90;79.80;;;;;;7372932;19;20028;-82
2023/01/07 09:12:37;;;;;;;9.48;3.00;;;14.00;79.80;;;;;;7372215;19;20082;-82
2023/01/07 09:15:07;;;;;;;9.18;3.03;;;13.90;79.30;;;;;;7374545;19;20018;-78
2023/01/07 09:17:37;;;;;;;5.18;2.90;;;13.80;79.20;;;;;;7377934;19;20016;-82
2023/01/07 09:20:11;;;;;;;4.43;3.17;;;13.90;80.50;;;;;;7401001;19;20015;-79
2023/01/07 09:22:41;;;;;;;6.07;3.30;;;13.90;79.90;;;;;;7383589;19;20074;-80
2023/01/07 09:25:11;;;;;;;9.27;3.40;;;13.90;79.80;;;;;;7376958;19;20048;-80
2023/01/07 09:27:41;;;;;;;6.85;2.92;;;13.90;79.80;;;;;;7373595;19;20027;-80
2023/01/07 09:30:12;;;;;;;5.25;3.10;;;14.00;79.70;;;;;;7373216;19;20014;-81
2023/01/07 09:32:45;;;;;;;7.25;3.47;;;14.10;79.60;;;;;;7371182;19;20134;-80
2023/01/07 09:35:20;;;;;;;5.20;2.88;;;14.10;79.40;;;;;;7392156;19;20027;-79
2023/01/07 09:37:51;;;;;;;6.63;2.88;;;13.90;78.60;;;;;;7393831;19;20022;-80
2023/01/07 09:40:28;;;;;;;6.10;3.25;;;14.00;79.40;;;;;;7369758;19;20075;-80
2023/01/07 09:43:06;;;;;;;5.00;2.97;;;13.90;78.80;;;;;;7370257;19;20014;-78
2023/01/07 09:45:38;;;;;;;6.10;3.78;;;13.80;79.00;;;;;;7372408;19;20456;-80
2023/01/07 09:48:15;;;;;;;4.03;3.13;;;13.80;79.50;;;;;;7372456;19;20014;-80
2023/01/07 09:50:54;;;;;;;6.53;3.40;;;13.70;79.20;;;;;;7372994;19;20029;-80
2023/01/07 09:53:27;;;;;;;5.88;3.30;;;13.80;79.50;;;;;;7373291;19;20022;-80
2023/01/07 09:55:57;;;;;;;4.80;2.85;;;13.80;79.40;;;;;;7399651;19;20015;-80
2023/01/07 09:58:26;;;;;;;4.70;2.85;;;13.80;79.40;;;;;;7387004;19;20015;-79
2023/01/07 10:01:06;;;;;;;8.18;3.45;;;13.80;79.50;;;;;;7404454;19;20011;-80
2023/01/07 10:03:56;;;;;;;6.22;2.90;;;13.80;79.50;;;;;;7401283;19;20054;-79
2023/01/07 10:06:38;;;;;;;5.43;3.38;;;13.80;79.40;;;;;;7394172;19;20057;-79
2023/01/07 10:09:14;;;;;;;7.28;3.10;;;13.90;79.30;;;;;;7393362;19;20025;-80
2023/01/07 10:11:54;;;;;;;6.85;2.53;;;13.90;79.30;;;;;;7376198;19;20023;-81
2023/01/07 10:14:45;;;;;;;6.28;3.17;;;13.90;79.00;;;;;;7371613;19;20763;-80
2023/01/07 10:17:24;;;;;;;9.20;5.60;;;13.90;79.10;;;;;;7396059;19;20039;-80
2023/01/07 10:20:03;;;;;;;28.02;12.93;;;13.90;79.10;;;;;;7373237;19;20010;-81
2023/01/07 10:22:38;;;;;;;8.35;4.45;;;13.90;79.10;;;;;;7371342;19;20014;-80
2023/01/07 10:25:16;;;;;;;12.25;5.80;;;13.90;78.90;;;;;;7368409;19;20018;-80
2023/01/07 10:27:47;;;;;;;9.63;3.25;;;14.00;78.90;;;;;;7371514;19;20091;-79
2023/01/07 10:30:21;;;;;;;6.15;3.25;;;13.90;78.60;;;;;;7369691;19;20026;-79
2023/01/07 10:32:55;;;;;;;4.85;3.40;;;14.00;78.90;;;;;;7366784;19;20511;-80
2023/01/07 10:35:26;;;;;;;5.40;3.05;;;13.90;78.90;;;;;;7370038;19;20338;-80
2023/01/07 10:37:59;;;;;;;;;;;14.00;78.90;;;;;;7393483;19;20449;-82
2023/01/07 10:40:39;;;;;;;9.75;3.67;;;14.10;78.60;;;;;;7368339;19;19922;-81
2023/01/07 10:43:24;;;;;;;6.32;3.88;;;14.10;78.40;;;;;;7368969;19;20401;-80
2023/01/07 10:46:08;;;;;;;6.45;3.30;;;13.90;78.60;;;;;;7370397;19;20495;-81
2023/01/07 10:48:51;;;;;;;5.25;3.10;;;14.00;78.80;;;;;;7368287;19;20022;-83
2023/01/07 10:51:40;;;;;;;4.75;2.85;;;14.00;78.50;;;;;;7371628;19;20010;-83
2023/01/07 10:54:26;;;;;;;6.00;2.70;;;14.20;78.70;;;;;;7372705;19;20010;-82
2023/01/07 10:57:00;;;;;;;4.95;3.00;;;14.20;78.00;;;;;;7373868;19;20035;-82
2023/01/07 10:59:29;;;;;;;5.45;3.10;;;14.30;77.80;;;;;;7379242;19;20011;-81
2023/01/07 11:02:00;;;;;;;6.00;2.78;;;14.40;77.80;;;;;;7397018;19;20623;-82
2023/01/07 11:04:29;;;;;;;6.45;2.55;;;14.30;77.60;;;;;;7377835;19;20370;-84
2023/01/07 11:07:03;;;;;;;4.07;2.65;;;14.10;77.50;;;;;;7373024;19;20011;-81
2023/01/07 11:09:38;;;;;;;3.60;2.67;;;14.20;77.70;;;;;;7385013;19;20042;-82
2023/01/07 11:12:17;;;;;;;5.72;2.83;;;14.30;77.50;;;;;;7394666;19;20019;-81
2023/01/07 11:14:46;;;;;;;4.15;2.83;;;14.30;77.40;;;;;;7385306;19;20015;-82
2023/01/07 11:17:27;;;;;;;5.60;3.20;;;14.40;77.00;;;;;;7386613;19;20685;-81
2023/01/07 11:19:56;;;;;;;3.53;2.67;;;14.40;77.10;;;;;;7389888;19;20762;-81
2023/01/07 11:22:35;;;;;;;4.43;2.65;;;14.50;77.20;;;;;;7367285;19;20027;-80
2023/01/07 11:25:28;;;;;;;4.82;2.80;;;14.50;77.40;;;;;;7371702;19;20104;-82
2023/01/07 11:28:00;;;;;;;3.67;2.40;;;14.50;76.20;;;;;;7370796;19;20014;-83
2023/01/07 11:30:32;;;;;;;7.15;2.78;;;14.70;76.50;;;;;;7371958;19;20461;-82
2023/01/07 11:33:04;;;;;;;6.30;2.80;;;14.70;76.60;;;;;;7372038;19;20014;-80
2023/01/07 11:35:33;;;;;;;6.95;3.05;;;14.80;76.20;;;;;;7372704;19;20015;-80
2023/01/07 11:38:02;;;;;;;6.80;2.80;;;14.90;75.90;;;;;;7392937;19;20027;-81
2023/01/07 11:40:35;;;;;;;6.90;2.58;;;14.70;75.60;;;;;;7368993;19;20007;-81
2023/01/07 11:43:05;;;;;;;4.50;2.70;;;14.60;76.50;;;;;;7368904;19;20015;-81
2023/01/07 11:45:37;;;;;;;6.93;2.70;;;14.70;76.30;;;;;;7368915;19;20014;-80
2023/01/07 11:48:11;;;;;;;5.28;2.70;;;14.70;76.40;;;;;;7368331;19;20026;-79
2023/01/07 11:50:42;;;;;;;5.35;2.80;;;14.70;76.30;;;;;;7369724;19;20824;-79
2023/01/07 11:53:25;;;;;;;5.30;2.88;;;14.90;76.30;;;;;;7387766;19;20003;-80
2023/01/07 11:56:01;;;;;;;5.65;2.53;;;14.90;76.20;;;;;;7369251;19;20015;-79
2023/01/07 11:58:33;;;;;;;3.55;2.15;;;15.00;75.50;;;;;;7367896;19;20010;-81
2023/01/07 12:01:13;;;;;;;5.72;2.72;;;15.00;74.70;;;;;;7368028;19;20034;-79
2023/01/07 12:03:43;;;;;;;7.18;2.90;;;14.90;74.60;;;;;;7367141;19;20190;-79
2023/01/07 12:06:20;;;;;;;6.10;2.72;;;14.90;75.30;;;;;;7368570;19;20018;-79
2023/01/07 12:08:55;;;;;;;7.28;3.58;;;14.90;75.20;;;;;;7366713;19;20014;-77
2023/01/07 12:11:33;;;;;;;11.90;4.55;;;15.00;75.50;;;;;;7366606;19;20086;-75
2023/01/07 12:14:09;;;;;;;9.77;3.63;;;14.60;76.10;;;;;;7389367;19;20074;-74
2023/01/07 12:16:38;;;;;;;8.25;3.50;;;14.70;76.80;;;;;;7370055;19;20010;-75
2023/01/07 12:19:22;;;;;;;18.20;3.60;;;14.70;75.80;;;;;;7370419;19;20526;-74
2023/01/07 12:22:06;;;;;;;8.23;3.00;;;14.50;77.60;;;;;;7372245;19;20517;-75
2023/01/07 12:25:06;;;;;;;7.18;3.20;;;14.40;77.60;;;;;;7371630;19;20123;-78
2023/01/07 12:27:45;;;;;;;9.05;3.70;;;14.20;77.00;;;;;;7374389;19;20036;-80
2023/01/07 12:30:35;;;;;;;7.75;3.10;;;13.90;78.60;;;;;;7371794;19;20042;-76
2023/01/07 12:33:17;;;;;;;10.52;3.25;;;14.20;78.40;;;;;;7370648;19;20018;-79
2023/01/07 12:35:46;;;;;;;13.32;3.38;;;14.20;78.00;;;;;;7372140;19;20761;-80
2023/01/07 12:38:21;;;;;;;10.77;3.53;;;14.00;79.10;;;;;;7389748;19;20046;-80
2023/01/07 12:40:53;;;;;;;10.38;3.10;;;14.10;79.80;;;;;;7392912;19;20085;-82
2023/01/07 12:43:32;;;;;;;15.98;7.65;;;14.10;78.70;;;;;;7374209;19;20105;-79
2023/01/07 12:46:02;;;;;;;7.80;3.20;;;14.20;78.70;;;;;;7373431;19;20107;-79
2023/01/07 12:48:39;;;;;;;8.95;3.22;;;14.20;78.90;;;;;;7374021;19;20015;-78
2023/01/07 12:51:16;;;;;;;7.18;3.30;;;14.10;79.50;;;;;;7373235;19;20018;-78
2023/01/07 12:53:50;;;;;;;9.15;2.83;;;14.10;79.20;;;;;;7369117;19;20014;-79
2023/01/07 12:56:24;;;;;;;15.02;3.20;;;13.80;80.00;;;;;;7371724;19;20126;-78
2023/01/07 12:59:04;;;;;;;8.18;3.20;;;13.70;80.90;;;;;;7393203;19;20010;-79
2023/01/07 13:01:38;;;;;;;7.03;3.10;;;14.00;80.40;;;;;;7383842;19;20027;-80
2023/01/07 13:04:16;;;;;;;8.77;3.78;;;14.20;79.70;;;;;;7399484;19;20015;-78
2023/01/07 13:06:51;;;;;;;8.00;3.67;;;14.10;79.80;;;;;;7398847;19;20014;-79
2023/01/07 13:09:29;;;;;;;6.63;3.13;;;14.20;79.60;;;;;;7399227;19;20015;-81
2023/01/07 13:14:54;;;;;;;9.30;3.30;;;14.30;79.60;;;;;;7377708;19;20102;-78
2023/01/07 13:17:27;;;;;;;9.32;3.67;;;14.20;79.50;;;;;;7370884;19;20038;-78
2023/01/07 13:19:56;;;;;;;7.78;2.85;;;14.00;80.70;;;;;;7395008;19;20015;-78
2023/01/07 13:22:33;;;;;;;10.10;3.80;;;13.80;81.20;;;;;;7372864;19;20126;-78
2023/01/07 13:25:17;;;;;;;10.38;3.47;;;13.40;84.10;;;;;;7371878;19;20019;-78